createdAt,value
2022-08-17T00:00:01.319Z,31.77
2022-08-17T00:02:28.280Z,29.63
2022-08-17T00:04:56.063Z,33.97
2022-08-17T00:07:23.103Z,32.33
2022-08-17T00:09:50.288Z,34.80
2022-08-17T00:12:43.534Z,36.10
2022-08-17T00:15:05.951Z,36.83
2022-08-17T00:17:37.373Z,33.37
2022-08-17T00:20:04.853Z,33.70
2022-08-17T00:22:36.406Z,33.95
2022-08-17T00:25:13.009Z,35.00
2022-08-17T00:27:40.121Z,33.88
2022-08-17T00:30:10.719Z,31.77
2022-08-17T00:33:13.839Z,35.65
2022-08-17T00:35:30.733Z,37.38
2022-08-17T00:37:57.698Z,33.05
2022-08-17T00:40:24.938Z,35.17
2022-08-17T00:42:53.365Z,31.52
2022-08-17T00:45:20.975Z,30.30
2022-08-17T00:47:48.476Z,35.72
2022-08-17T00:50:18.671Z,35.58
2022-08-17T00:52:54.757Z,33.53
2022-08-17T00:55:23.864Z,34.15
2022-08-17T00:57:55.497Z,31.03
2022-08-17T01:00:32.324Z,31.30
2022-08-17T01:03:10.128Z,33.05
2022-08-17T01:05:42.419Z,35.30
2022-08-17T01:08:11.975Z,32.95
2022-08-17T01:10:59.259Z,31.98
2022-08-17T01:13:40.681Z,32.72
2022-08-17T01:16:16.070Z,30.65
2022-08-17T01:18:45.841Z,33.08
2022-08-17T01:21:24.585Z,32.75
2022-08-17T01:23:51.861Z,35.67
2022-08-17T01:26:19.377Z,41.97
2022-08-17T01:28:55.030Z,40.20
2022-08-17T01:31:25.119Z,35.63
2022-08-17T01:33:52.154Z,43.42
2022-08-17T01:36:19.207Z,41.47
2022-08-17T01:38:46.210Z,40.63
2022-08-17T01:41:16.338Z,63.88
2022-08-17T01:44:00.993Z,94.13
2022-08-17T01:46:32.028Z,67.95
2022-08-17T01:48:59.422Z,66.47
2022-08-17T01:51:32.479Z,45.63
2022-08-17T01:54:05.240Z,47.90
2022-08-17T01:56:34.143Z,38.63
2022-08-17T01:59:01.427Z,39.37
2022-08-17T02:01:30.703Z,33.42
2022-08-17T02:04:01.102Z,40.35
2022-08-17T02:06:53.618Z,58.88
2022-08-17T02:09:25.520Z,38.17
2022-08-17T02:11:54.381Z,37.22
2022-08-17T02:14:22.686Z,27.63
2022-08-17T02:16:49.649Z,28.60
2022-08-17T02:19:17.500Z,28.80
2022-08-17T02:21:46.948Z,25.17
2022-08-17T02:24:59.869Z,19.65
2022-08-17T02:27:07.871Z,17.55
2022-08-17T02:29:34.909Z,14.35
2022-08-17T02:32:01.952Z,12.90
2022-08-17T02:34:30.021Z,12.32
2022-08-17T02:36:56.957Z,14.00
2022-08-17T02:39:24.048Z,15.70
2022-08-17T02:41:59.804Z,16.27
2022-08-17T02:44:39.280Z,24.05
2022-08-17T02:47:08.560Z,27.63
2022-08-17T02:49:35.700Z,29.90
2022-08-17T02:52:07.131Z,29.67
2022-08-17T02:54:41.206Z,29.02
2022-08-17T02:57:09.580Z,36.20
2022-08-17T02:59:36.686Z,38.65
2022-08-17T03:02:06.046Z,35.92
2022-08-17T03:04:35.267Z,37.63
2022-08-17T03:07:03.531Z,40.70
2022-08-17T03:09:30.759Z,34.70
2022-08-17T03:12:23.921Z,33.95
2022-08-17T03:14:50.790Z,33.00
2022-08-17T03:17:17.643Z,27.00
2022-08-17T03:19:44.941Z,26.02
2022-08-17T03:22:36.248Z,24.42
2022-08-17T03:24:58.907Z,26.58
2022-08-17T03:27:26.317Z,28.13
2022-08-17T03:29:53.677Z,28.40
2022-08-17T03:32:20.915Z,30.02
2022-08-17T03:34:47.984Z,24.15
2022-08-17T03:37:15.783Z,29.73
2022-08-17T03:39:43.053Z,34.22
2022-08-17T03:42:31.390Z,32.35
2022-08-17T03:45:00.415Z,29.17
2022-08-17T03:47:45.784Z,32.47
2022-08-17T03:50:32.517Z,28.08
2022-08-17T03:53:18.933Z,28.85
2022-08-17T03:56:04.724Z,31.88
2022-08-17T03:58:31.582Z,38.00
2022-08-17T04:00:58.599Z,40.63
2022-08-17T04:03:25.606Z,41.92
2022-08-17T04:05:52.475Z,41.08
2022-08-17T04:08:19.364Z,43.93
2022-08-17T04:10:46.521Z,44.25
2022-08-17T04:13:14.428Z,40.67
2022-08-17T04:15:41.426Z,46.90
2022-08-17T04:18:08.327Z,45.90
2022-08-17T04:20:38.027Z,43.38
2022-08-17T04:23:09.470Z,45.95
2022-08-17T04:25:41.821Z,43.50
2022-08-17T04:28:15.996Z,42.80
2022-08-17T04:30:45.196Z,41.35
2022-08-17T04:33:15.699Z,45.27
2022-08-17T04:35:51.008Z,41.20
2022-08-17T04:38:26.978Z,39.25
2022-08-17T04:41:13.307Z,31.63
2022-08-17T04:43:42.353Z,37.78
2022-08-17T04:46:15.868Z,38.78
2022-08-17T04:48:46.556Z,33.10
2022-08-17T04:51:23.742Z,38.67
2022-08-17T04:53:55.103Z,35.80
2022-08-17T04:56:23.976Z,39.10
2022-08-17T04:58:52.765Z,34.45
2022-08-17T05:01:23.824Z,33.30
2022-08-17T05:03:53.559Z,36.03
2022-08-17T05:06:21.111Z,35.63
2022-08-17T05:08:48.154Z,33.80
2022-08-17T05:11:15.828Z,34.05
2022-08-17T05:13:42.715Z,33.50
2022-08-17T05:16:09.731Z,32.83
2022-08-17T05:18:38.851Z,32.10
2022-08-17T05:21:06.963Z,30.23
2022-08-17T05:23:42.419Z,30.88
2022-08-17T05:26:26.350Z,34.45
2022-08-17T05:28:59.551Z,29.70
2022-08-17T05:31:28.806Z,29.80
2022-08-17T05:33:55.827Z,30.92
2022-08-17T05:36:43.149Z,27.95
2022-08-17T05:39:13.422Z,32.53
2022-08-17T05:41:44.360Z,29.67
2022-08-17T05:44:11.285Z,25.17
2022-08-17T05:46:41.627Z,33.60
2022-08-17T05:49:09.509Z,28.73
2022-08-17T05:52:03.746Z,26.60
2022-08-17T05:54:57.032Z,25.60
2022-08-17T05:58:00.123Z,23.73
2022-08-17T06:00:50.302Z,24.83
2022-08-17T06:03:45.086Z,20.65
2022-08-17T06:06:51.343Z,19.23
2022-08-17T06:09:33.869Z,21.35
2022-08-17T06:12:30.380Z,21.15
2022-08-17T06:15:19.513Z,17.88
2022-08-17T06:17:46.702Z,16.23
2022-08-17T06:20:16.055Z,15.32
2022-08-17T06:22:47.698Z,20.58
2022-08-17T06:25:39.009Z,14.77
2022-08-17T06:28:13.702Z,13.93
2022-08-17T06:30:59.560Z,12.73
2022-08-17T06:33:34.248Z,12.57
2022-08-17T06:36:10.140Z,12.95
2022-08-17T06:39:09.198Z,13.20
2022-08-17T06:42:07.189Z,13.80
2022-08-17T06:45:10.378Z,10.50
2022-08-17T06:47:59.291Z,12.93
2022-08-17T06:50:39.948Z,9.02
2022-08-17T06:53:29.340Z,9.82
2022-08-17T06:56:06.777Z,10.02
2022-08-17T06:58:35.783Z,9.85
2022-08-17T07:01:14.055Z,10.88
2022-08-17T07:03:56.560Z,10.60
2022-08-17T07:06:38.359Z,10.10
2022-08-17T07:09:28.170Z,9.70
2022-08-17T07:12:24.421Z,9.85
2022-08-17T07:15:05.494Z,10.70
2022-08-17T07:17:47.869Z,9.57
2022-08-17T07:20:20.485Z,9.88
2022-08-17T07:23:00.185Z,10.35
2022-08-17T07:25:28.591Z,9.60
2022-08-17T07:27:59.790Z,10.27
2022-08-17T07:30:47.058Z,10.48
2022-08-17T07:33:29.008Z,10.60
2022-08-17T07:35:58.087Z,10.23
2022-08-17T07:38:31.024Z,10.13
2022-08-17T07:40:58.218Z,9.95
2022-08-17T07:43:41.125Z,10.43
2022-08-17T07:46:37.677Z,9.98
2022-08-17T07:49:07.462Z,10.43
2022-08-17T07:51:43.941Z,10.53
2022-08-17T07:54:22.452Z,10.20
2022-08-17T07:56:54.935Z,11.10
2022-08-17T07:59:24.784Z,11.38
2022-08-17T08:01:58.121Z,11.98
2022-08-17T08:04:59.212Z,11.93
2022-08-17T08:07:26.745Z,13.82
2022-08-17T08:10:05.943Z,13.50
2022-08-17T08:12:37.716Z,12.90
2022-08-17T08:15:18.956Z,12.55
2022-08-17T08:17:57.600Z,14.00
2022-08-17T08:20:53.939Z,13.20
2022-08-17T08:23:41.150Z,13.40
2022-08-17T08:26:23.574Z,13.82
2022-08-17T08:29:01.344Z,13.95
2022-08-17T08:31:46.460Z,15.52
2022-08-17T08:34:53.164Z,14.60
2022-08-17T08:37:43.638Z,14.88
2022-08-17T08:40:18.669Z,14.40
2022-08-17T08:43:04.227Z,15.60
2022-08-17T08:45:59.799Z,14.38
2022-08-17T08:49:06.501Z,18.03
2022-08-17T08:51:46.518Z,15.82
2022-08-17T08:54:26.687Z,15.30
2022-08-17T08:57:34.019Z,17.27
2022-08-17T09:00:17.181Z,21.13
2022-08-17T09:03:06.193Z,20.77
2022-08-17T09:05:58.149Z,17.25
2022-08-17T09:08:37.146Z,18.70
2022-08-17T09:11:11.517Z,22.00
2022-08-17T09:13:54.682Z,14.68
2022-08-17T09:16:33.149Z,13.68
2022-08-17T09:19:18.835Z,11.00
2022-08-17T09:22:01.180Z,10.65
2022-08-17T09:24:49.221Z,11.25
2022-08-17T09:27:23.643Z,13.82
2022-08-17T09:30:08.480Z,15.80
2022-08-17T09:32:42.291Z,12.85
2022-08-17T09:35:20.503Z,10.95
2022-08-17T09:38:01.888Z,12.07
2022-08-17T09:40:44.646Z,10.23
2022-08-17T09:43:50.692Z,11.48
2022-08-17T09:46:22.521Z,9.85
2022-08-17T09:49:03.397Z,9.40
2022-08-17T09:51:30.407Z,10.45
2022-08-17T09:54:09.695Z,9.25
2022-08-17T09:57:05.902Z,9.30
2022-08-17T09:59:58.131Z,9.45
2022-08-17T10:02:34.223Z,10.43
2022-08-17T10:05:15.852Z,10.40
2022-08-17T10:07:52.358Z,9.23
2022-08-17T10:10:28.638Z,8.88
2022-08-17T10:13:10.879Z,8.90
2022-08-17T10:15:53.762Z,8.80
2022-08-17T10:18:31.926Z,8.93
2022-08-17T10:21:35.578Z,11.00
2022-08-17T10:25:21.761Z,8.60
2022-08-17T10:27:39.058Z,8.85
2022-08-17T10:30:08.184Z,11.52
2022-08-17T10:32:49.343Z,9.00
2022-08-17T10:35:34.666Z,11.20
2022-08-17T10:38:38.437Z,7.93
2022-08-17T10:41:27.354Z,10.10
2022-08-17T10:44:38.659Z,8.05
2022-08-17T10:47:07.062Z,9.35
2022-08-17T10:49:49.662Z,14.40
2022-08-17T10:52:42.642Z,8.25
2022-08-17T10:55:14.971Z,10.63
2022-08-17T10:57:50.244Z,7.35
2022-08-17T11:00:28.432Z,7.35
2022-08-17T11:02:57.522Z,7.05
2022-08-17T11:05:50.195Z,7.85
2022-08-17T11:08:41.473Z,7.60
2022-08-17T11:11:37.617Z,7.25
2022-08-17T11:14:29.392Z,7.60
2022-08-17T11:17:23.684Z,7.55
2022-08-17T11:20:09.389Z,9.23
2022-08-17T11:23:15.186Z,9.82
2022-08-17T11:26:08.581Z,12.38
2022-08-17T11:28:48.705Z,11.15
2022-08-17T11:31:38.403Z,12.88
2022-08-17T11:34:26.223Z,12.45
2022-08-17T11:37:30.899Z,13.93
2022-08-17T11:40:11.864Z,16.05
2022-08-17T11:42:50.168Z,14.23
2022-08-17T11:45:35.411Z,13.45
2022-08-17T11:48:45.680Z,12.32
2022-08-17T11:51:33.070Z,16.33
2022-08-17T11:56:59.802Z,14.75
2022-08-17T11:59:32.803Z,14.68
2022-08-17T12:02:02.320Z,14.18
2022-08-17T12:04:34.599Z,17.13
2022-08-17T12:07:16.843Z,16.10
2022-08-17T12:09:47.780Z,17.27
2022-08-17T12:12:19.363Z,18.10
2022-08-17T12:15:10.651Z,23.15
2022-08-17T12:17:40.355Z,20.73
2022-08-17T12:20:24.043Z,21.98
2022-08-17T12:23:16.991Z,19.87
2022-08-17T12:25:49.287Z,18.80
2022-08-17T12:28:27.161Z,20.65
2022-08-17T12:30:56.068Z,18.30
2022-08-17T12:33:27.943Z,21.08
2022-08-17T12:36:05.556Z,20.75
2022-08-17T12:38:37.966Z,19.98
2022-08-17T12:41:25.846Z,20.25
2022-08-17T12:44:20.871Z,20.25
2022-08-17T12:47:19.360Z,22.23
2022-08-17T12:49:51.545Z,21.17
2022-08-17T12:52:32.808Z,21.65
2022-08-17T12:55:13.007Z,24.92
2022-08-17T12:57:47.100Z,29.13
2022-08-17T13:00:33.129Z,26.50
2022-08-17T13:03:07.792Z,25.02
2022-08-17T13:05:37.423Z,23.05
2022-08-17T13:08:15.732Z,25.45
2022-08-17T13:10:42.805Z,25.33
2022-08-17T13:13:25.084Z,25.70
2022-08-17T13:16:05.631Z,26.38
2022-08-17T13:18:43.943Z,27.75
2022-08-17T13:21:20.011Z,26.13
2022-08-17T13:24:05.813Z,28.58
2022-08-17T13:26:42.119Z,29.98
2022-08-17T13:29:23.865Z,28.27
2022-08-17T13:32:13.754Z,30.17
2022-08-17T13:35:13.051Z,29.27
2022-08-17T13:37:34.745Z,30.73
2022-08-17T13:40:10.872Z,31.85
2022-08-17T13:42:51.843Z,32.22
2022-08-17T13:45:36.341Z,36.05
2022-08-17T13:48:13.626Z,30.42
2022-08-17T13:50:59.585Z,34.42
2022-08-17T13:53:36.876Z,36.50
2022-08-17T13:56:37.437Z,39.22
2022-08-17T13:59:13.879Z,37.58
2022-08-17T14:01:48.509Z,44.78
2022-08-17T14:04:27.981Z,41.75
2022-08-17T14:06:57.041Z,38.90
2022-08-17T14:09:36.832Z,32.40
2022-08-17T14:12:08.899Z,33.03
2022-08-17T14:14:36.387Z,33.60
2022-08-17T14:17:04.338Z,34.72
2022-08-17T14:19:31.380Z,39.60
2022-08-17T14:22:00.451Z,38.22
2022-08-17T14:24:33.707Z,34.92
2022-08-17T14:27:03.409Z,33.07
2022-08-17T14:29:33.270Z,35.63
2022-08-17T14:32:06.582Z,34.13
2022-08-17T14:34:33.591Z,32.65
2022-08-17T14:37:00.448Z,31.15
2022-08-17T14:39:28.759Z,34.20
2022-08-17T14:41:57.865Z,36.57
2022-08-17T14:44:24.949Z,30.83
2022-08-17T14:46:51.871Z,34.43
2022-08-17T14:49:20.652Z,29.02
2022-08-17T14:51:47.927Z,30.77
2022-08-17T14:54:29.433Z,31.80
2022-08-17T14:57:22.486Z,27.50
2022-08-17T14:59:54.245Z,29.25
2022-08-17T15:02:29.450Z,30.65
2022-08-17T15:05:03.957Z,30.92
2022-08-17T15:07:31.675Z,30.20
2022-08-17T15:10:02.454Z,31.10
2022-08-17T15:12:34.559Z,28.95
2022-08-17T15:15:06.223Z,29.27
2022-08-17T15:17:43.799Z,28.02
2022-08-17T15:20:28.472Z,27.45
2022-08-17T15:22:57.155Z,28.00
2022-08-17T15:25:26.239Z,28.10
2022-08-17T15:27:54.865Z,29.08
2022-08-17T15:30:22.537Z,27.35
2022-08-17T15:32:54.484Z,28.00
2022-08-17T15:35:27.416Z,28.67
2022-08-17T15:38:11.297Z,27.38
2022-08-17T15:40:42.765Z,30.33
2022-08-17T15:43:23.323Z,28.90
2022-08-17T15:46:12.270Z,24.57
2022-08-17T15:48:44.692Z,28.42
2022-08-17T15:51:15.057Z,27.45
2022-08-17T15:53:44.801Z,26.27
2022-08-17T15:56:13.647Z,28.67
2022-08-17T15:58:43.673Z,27.80
2022-08-17T16:01:16.764Z,27.33
2022-08-17T16:04:03.930Z,29.90
2022-08-17T16:06:32.432Z,28.88
2022-08-17T16:09:00.410Z,28.13
2022-08-17T16:11:27.304Z,34.33
2022-08-17T16:13:54.864Z,28.45
2022-08-17T16:16:23.625Z,27.15
2022-08-17T16:18:53.543Z,31.08
2022-08-17T16:21:25.760Z,28.83
2022-08-17T16:24:02.985Z,28.25
2022-08-17T16:26:31.827Z,28.23
2022-08-17T16:29:01.023Z,27.08
2022-08-17T16:31:28.101Z,31.27
2022-08-17T16:34:15.488Z,31.60
2022-08-17T16:36:55.795Z,29.70
2022-08-17T16:39:28.118Z,30.67
2022-08-17T16:41:56.302Z,30.20
2022-08-17T16:44:23.902Z,31.25
2022-08-17T16:46:51.108Z,31.13
2022-08-17T16:49:35.706Z,29.50
2022-08-17T16:52:05.312Z,27.08
2022-08-17T16:54:32.640Z,28.10
2022-08-17T16:56:59.528Z,32.15
2022-08-17T16:59:31.146Z,28.00
2022-08-17T17:02:15.701Z,34.22
2022-08-17T17:05:03.183Z,34.40
2022-08-17T17:07:37.733Z,32.47
2022-08-17T17:10:15.841Z,36.30
2022-08-17T17:13:03.756Z,34.90
2022-08-17T17:15:45.687Z,31.88
2022-08-17T17:18:15.281Z,34.40
2022-08-17T17:20:54.750Z,34.30
2022-08-17T17:23:34.950Z,31.67
2022-08-17T17:26:19.860Z,34.25
2022-08-17T17:28:56.240Z,30.73
2022-08-17T17:31:29.366Z,32.45
2022-08-17T17:34:00.531Z,30.65
2022-08-17T17:36:42.703Z,33.75
2022-08-17T17:39:43.757Z,34.50
2022-08-17T17:42:14.491Z,35.08
2022-08-17T17:45:09.620Z,33.22
2022-08-17T17:47:37.187Z,29.75
2022-08-17T17:50:07.573Z,28.02
2022-08-17T17:52:47.448Z,27.65
2022-08-17T17:55:37.393Z,26.83
2022-08-17T17:58:22.475Z,25.83
2022-08-17T18:01:01.091Z,30.17
2022-08-17T18:03:58.870Z,30.63
2022-08-17T18:07:12.337Z,26.10
2022-08-17T18:10:19.643Z,31.17
2022-08-17T18:13:35.438Z,29.35
2022-08-17T18:16:06.244Z,30.27
2022-08-17T18:18:39.035Z,32.30
2022-08-17T18:21:16.338Z,27.55
2022-08-17T18:23:59.778Z,30.60
2022-08-17T18:26:47.517Z,31.67
2022-08-17T18:29:32.203Z,28.55
2022-08-17T18:32:25.553Z,30.42
2022-08-17T18:35:18.010Z,27.17
2022-08-17T18:37:46.542Z,30.13
2022-08-17T18:40:19.693Z,30.23
2022-08-17T18:43:13.358Z,26.15
2022-08-17T18:45:45.957Z,22.58
2022-08-17T18:48:30.306Z,20.23
2022-08-17T18:51:40.770Z,18.98
2022-08-17T18:54:24.926Z,18.48
2022-08-17T18:57:02.032Z,21.00
2022-08-17T18:59:28.951Z,19.73
2022-08-17T19:02:27.241Z,18.90
2022-08-17T19:05:27.290Z,19.05
2022-08-17T19:07:54.818Z,19.57
2022-08-17T19:10:30.574Z,21.13
2022-08-17T19:13:31.239Z,20.25
2022-08-17T19:16:15.684Z,21.33
2022-08-17T19:18:56.052Z,20.60
2022-08-17T19:21:34.765Z,19.33
2022-08-17T19:24:29.972Z,25.23
2022-08-17T19:27:01.531Z,26.88
2022-08-17T19:29:38.830Z,26.85
2022-08-17T19:32:08.843Z,28.77
2022-08-17T19:34:37.615Z,25.02
2022-08-17T19:37:29.789Z,27.13
2022-08-17T19:40:41.884Z,23.00
2022-08-17T19:43:20.657Z,25.58
2022-08-17T19:46:07.728Z,23.23
2022-08-17T19:49:03.289Z,24.08
2022-08-17T19:52:06.573Z,21.40
2022-08-17T19:54:59.514Z,17.90
2022-08-17T19:57:50.613Z,15.52
2022-08-17T20:00:19.085Z,17.23
2022-08-17T20:03:06.179Z,19.10
2022-08-17T20:06:09.221Z,18.10
2022-08-17T20:08:40.054Z,22.95
2022-08-17T20:11:14.573Z,20.52
2022-08-17T20:13:49.011Z,19.17
2022-08-17T20:16:18.420Z,24.05
2022-08-17T20:19:02.796Z,20.42
2022-08-17T20:21:39.688Z,21.10
2022-08-17T20:24:20.159Z,19.88
2022-08-17T20:26:58.053Z,20.35
2022-08-17T20:29:39.971Z,19.10
2022-08-17T20:32:23.358Z,22.50
2022-08-17T20:35:19.366Z,18.77
2022-08-17T20:38:03.208Z,19.48
2022-08-17T20:40:35.232Z,18.17
2022-08-17T20:43:33.480Z,19.27
2022-08-17T20:46:03.505Z,19.37
2022-08-17T20:48:41.194Z,19.85
2022-08-17T20:52:01.475Z,19.20
2022-08-17T20:54:44.327Z,19.95
2022-08-17T20:57:33.299Z,22.38
2022-08-17T21:00:16.436Z,19.63
2022-08-17T21:03:12.145Z,17.25
2022-08-17T21:06:00.268Z,18.20
2022-08-17T21:08:34.303Z,18.60
2022-08-17T21:11:58.194Z,18.20
2022-08-17T21:14:31.621Z,19.20
2022-08-17T21:16:58.674Z,25.25
2022-08-17T21:20:09.815Z,24.70
2022-08-17T21:23:03.377Z,29.33
2022-08-17T21:25:57.687Z,25.67
2022-08-17T21:28:33.895Z,29.23
2022-08-17T21:31:09.078Z,30.48
2022-08-17T21:33:39.601Z,28.70
2022-08-17T21:36:12.325Z,28.30
2022-08-17T21:38:57.029Z,28.30
2022-08-17T21:41:45.539Z,29.10
2022-08-17T21:44:35.370Z,28.80
2022-08-17T21:47:20.417Z,25.92
2022-08-17T21:49:47.346Z,22.77
2022-08-17T21:52:17.784Z,24.88
2022-08-17T21:54:55.478Z,27.00
2022-08-17T21:57:27.539Z,25.88
2022-08-17T21:59:57.691Z,25.58
2022-08-17T22:02:29.549Z,27.20
2022-08-17T22:05:07.436Z,26.35
2022-08-17T22:07:36.580Z,21.08
2022-08-17T22:10:05.867Z,23.40
2022-08-17T22:12:32.779Z,24.55
2022-08-17T22:15:07.408Z,25.63
2022-08-17T22:17:37.880Z,24.48
2022-08-17T22:20:10.534Z,27.98
2022-08-17T22:23:18.134Z,23.88
2022-08-17T22:26:05.940Z,26.83
2022-08-17T22:28:42.322Z,24.85
2022-08-17T22:31:14.531Z,22.77
2022-08-17T22:33:41.578Z,22.80
2022-08-17T22:36:19.456Z,28.10
2022-08-17T22:38:49.977Z,24.67
2022-08-17T22:41:37.639Z,24.17
2022-08-17T22:44:24.176Z,24.00
2022-08-17T22:47:22.998Z,24.08
2022-08-17T22:49:57.853Z,24.25
2022-08-17T22:52:56.768Z,27.48
2022-08-17T22:55:43.219Z,22.42
2022-08-17T22:58:31.527Z,20.33
2022-08-17T23:01:32.625Z,22.38
2022-08-17T23:04:03.079Z,23.13
2022-08-17T23:06:33.850Z,21.92
2022-08-17T23:09:03.962Z,19.70
2022-08-17T23:11:49.547Z,24.20
2022-08-17T23:14:21.507Z,23.27
2022-08-17T23:16:53.084Z,22.48
2022-08-17T23:19:21.888Z,23.58
2022-08-17T23:21:51.006Z,23.00
2022-08-17T23:24:23.219Z,19.50
2022-08-17T23:26:50.305Z,20.73
2022-08-17T23:29:17.201Z,24.05
2022-08-17T23:31:44.118Z,24.55
2022-08-17T23:34:13.970Z,28.02
2022-08-17T23:36:42.059Z,25.63
2022-08-17T23:39:08.980Z,30.85
2022-08-17T23:41:39.971Z,29.93
2022-08-17T23:44:07.399Z,29.45
2022-08-17T23:46:34.821Z,31.27
2022-08-17T23:49:01.788Z,29.73
2022-08-17T23:51:38.198Z,33.85
2022-08-17T23:54:26.633Z,32.00
2022-08-17T23:56:53.688Z,30.10
2022-08-17T23:59:22.690Z,26.35
